Flight Briefing for CPX964

Departure Arrival
Joint Base McGuire Dix Lakehurst (KWRI)
Click to view FAA NOTAMS
Chicago/Rockford International Airport (KRFD)
Click to view FAA NOTAMS
Departure Time Arrival Time
N/A N/A
Aircraft Distance
B767-300BDSF 670nm
Departure METAR Arrival METAR
KWRI 180656Z 03004KT 7SM OVC006 02/01 A2985 RMK AO2A CIG 006V008 CIG 003 RWY18 SLP109 T00150014 $ KRFD 180654Z 35010KT 1 1/2SM -SN BR OVC028 M07/M09 A3004 RMK AO2 SFC VIS 2 SLP184 P0001 T10671089
Suggested Route
MXE4 AIR APE J178 FWA HOBAR J60 JOT V171 RFD


View recent IFR Routes data
Notes
EMPTY | NON-REVENUE REPOSITIONING LEG

Charts and Procedures

Charts for KWRI
No chart available
Charts for KRFD
No chart available

Ventusky Weather